Time;durP1;ratioP1;P1;durP2;ratioP2;P2;SDS_P1;SDS_P2;PMS_P1;PMS_P2;Temp;Humidity;BMP_temperature;BMP_pressure;BME280_temperature;BME280_humidity;BME280_pressure;Samples;Min_cycle;Max_cycle;Signal;HPM_P1;HPM_P2
2023/10/13 00:01:11;;;;;;;5.18;3.65;;;;;;;;;;5072115;28;20396;-82
2023/10/13 00:03:37;;;;;;;5.63;3.33;;;;;;;;;;5072497;28;20389;-83
2023/10/13 00:06:03;;;;;;;3.90;3.38;;;;;;;;;;5073235;28;20400;-83
2023/10/13 00:08:30;;;;;;;6.77;4.03;;;;;;;;;;5074521;28;20460;-83
2023/10/13 00:11:02;;;;;;;4.53;3.53;;;;;;;;;;5071833;28;20392;-83
2023/10/13 00:13:34;;;;;;;5.55;3.90;;;;;;;;;;5072036;28;20433;-83
2023/10/13 00:16:00;;;;;;;6.13;4.40;;;;;;;;;;5072072;28;20416;-83
2023/10/13 00:18:27;;;;;;;5.95;4.20;;;;;;;;;;5071849;28;20393;-83
2023/10/13 00:20:56;;;;;;;7.22;4.00;;;;;;;;;;5072139;28;20388;-83
2023/10/13 00:23:22;;;;;;;4.97;4.20;;;;;;;;;;5069381;28;20381;-83
2023/10/13 00:25:56;;;;;;;5.00;4.45;;;;;;;;;;5071433;28;20793;-82
2023/10/13 00:31:25;;;;;;;7.30;4.63;;;;;;;;;;5041094;28;20386;-83
2023/10/13 00:33:55;;;;;;;6.20;4.55;;;;;;;;;;5071175;28;20448;-83
2023/10/13 00:36:23;;;;;;;6.47;4.60;;;;;;;;;;5071215;28;20888;-83
2023/10/13 00:38:49;;;;;;;5.18;4.30;;;;;;;;;;5071525;28;20378;-83
2023/10/13 00:41:17;;;;;;;4.80;4.40;;;;;;;;;;5070638;28;20407;-83
2023/10/13 00:44:08;;;;;;;4.75;4.18;;;;;;;;;;5071427;28;20416;-83
2023/10/13 00:46:35;;;;;;;5.88;4.13;;;;;;;;;;5070357;28;20397;-83
2023/10/13 00:49:02;;;;;;;5.65;4.07;;;;;;;;;;5071297;28;20393;-83
2023/10/13 00:51:40;;;;;;;5.10;4.15;;;;;;;;;;5072035;28;20389;-83
2023/10/13 00:54:13;;;;;;;4.70;3.78;;;;;;;;;;5069732;28;20456;-83
2023/10/13 00:56:45;;;;;;;6.57;4.05;;;;;;;;;;5071412;28;20393;-83
2023/10/13 00:59:13;;;;;;;7.22;4.03;;;;;;;;;;5071632;28;20401;-83
2023/10/13 01:01:42;;;;;;;4.65;3.65;;;;;;;;;;5070826;28;20388;-83
2023/10/13 01:04:11;;;;;;;4.10;3.70;;;;;;;;;;5071060;28;20378;-83
2023/10/13 01:06:38;;;;;;;7.50;4.10;;;;;;;;;;5070565;28;20388;-83
2023/10/13 01:09:16;;;;;;;5.10;3.95;;;;;;;;;;5070979;28;20385;-83
2023/10/13 01:11:43;;;;;;;4.95;3.90;;;;;;;;;;5070803;28;20405;-83
2023/10/13 01:14:11;;;;;;;4.35;3.60;;;;;;;;;;5066700;28;20925;-83
2023/10/13 01:16:40;;;;;;;4.95;3.70;;;;;;;;;;5070776;28;20413;-83
2023/10/13 01:19:06;;;;;;;4.38;3.97;;;;;;;;;;5069678;28;20736;-83
2023/10/13 01:21:33;;;;;;;5.90;3.80;;;;;;;;;;5070126;28;20382;-83
2023/10/13 01:23:59;;;;;;;4.68;3.97;;;;;;;;;;5070575;28;20378;-83
2023/10/13 01:26:26;;;;;;;5.68;3.90;;;;;;;;;;5070002;28;20465;-83
2023/10/13 01:28:54;;;;;;;4.90;4.40;;;;;;;;;;5069152;28;20433;-82
2023/10/13 01:31:30;;;;;;;4.30;3.90;;;;;;;;;;5070227;28;20405;-83
2023/10/13 01:34:00;;;;;;;6.25;3.60;;;;;;;;;;5069983;28;20874;-83
2023/10/13 01:36:27;;;;;;;4.75;3.55;;;;;;;;;;5067490;28;20393;-83
2023/10/13 01:38:53;;;;;;;5.30;4.00;;;;;;;;;;5071039;28;20385;-83
2023/10/13 01:41:22;;;;;;;5.40;3.78;;;;;;;;;;5069633;28;20388;-83
2023/10/13 01:43:48;;;;;;;4.30;3.90;;;;;;;;;;5070229;28;20433;-83
2023/10/13 01:46:15;;;;;;;4.05;3.65;;;;;;;;;;5069723;28;20384;-83
2023/10/13 01:48:43;;;;;;;4.85;4.00;;;;;;;;;;5036224;28;20392;-83
2023/10/13 01:51:12;;;;;;;3.95;3.58;;;;;;;;;;5053072;28;20402;-83
2023/10/13 01:53:38;;;;;;;4.72;4.00;;;;;;;;;;5069863;28;20423;-83
2023/10/13 01:56:11;;;;;;;4.57;3.72;;;;;;;;;;5053012;28;20392;-83
2023/10/13 01:58:47;;;;;;;5.85;4.20;;;;;;;;;;5070243;28;20400;-83
2023/10/13 02:01:13;;;;;;;4.15;3.40;;;;;;;;;;5062347;28;20378;-82
2023/10/13 02:03:46;;;;;;;6.07;3.90;;;;;;;;;;5052567;28;20882;-83
2023/10/13 02:06:17;;;;;;;5.07;3.77;;;;;;;;;;5070957;28;20382;-83
2023/10/13 02:08:44;;;;;;;5.45;3.72;;;;;;;;;;5052060;28;20408;-83
2023/10/13 02:11:10;;;;;;;4.38;3.58;;;;;;;;;;5070513;28;20370;-83
2023/10/13 02:13:48;;;;;;;4.93;3.80;;;;;;;;;;5071624;28;20488;-83
2023/10/13 02:16:18;;;;;;;5.33;4.10;;;;;;;;;;5071502;28;20417;-83
2023/10/13 02:18:44;;;;;;;4.28;3.88;;;;;;;;;;5060879;28;20390;-82
2023/10/13 02:21:13;;;;;;;5.63;3.57;;;;;;;;;;5067607;28;20464;-83
2023/10/13 02:23:45;;;;;;;6.18;4.00;;;;;;;;;;5070490;28;20378;-83
2023/10/13 02:26:16;;;;;;;4.87;3.97;;;;;;;;;;5070220;28;20405;-83
2023/10/13 02:28:51;;;;;;;4.53;3.67;;;;;;;;;;5070875;28;20373;-83
2023/10/13 02:31:19;;;;;;;4.47;3.80;;;;;;;;;;5070996;28;20389;-83
2023/10/13 02:33:45;;;;;;;4.65;4.15;;;;;;;;;;5069786;28;20421;-83
2023/10/13 02:36:12;;;;;;;5.50;3.75;;;;;;;;;;5052643;28;20833;-82
2023/10/13 02:41:07;;;;;;;5.78;3.97;;;;;;;;;;5070873;28;20382;-82
2023/10/13 02:43:34;;;;;;;4.25;3.78;;;;;;;;;;5070531;28;20465;-83
2023/10/13 02:46:01;;;;;;;3.60;3.30;;;;;;;;;;5071223;28;20955;-82
2023/10/13 02:48:30;;;;;;;6.13;3.92;;;;;;;;;;5071796;28;20409;-82
2023/10/13 02:51:06;;;;;;;4.07;3.67;;;;;;;;;;5072350;28;20421;-83
2023/10/13 02:53:32;;;;;;;4.50;3.80;;;;;;;;;;5069508;28;20432;-82
2023/10/13 02:56:04;;;;;;;4.90;3.57;;;;;;;;;;5059560;28;20377;-82
2023/10/13 02:58:37;;;;;;;3.90;3.60;;;;;;;;;;5055174;28;20374;-82
2023/10/13 03:01:10;;;;;;;4.93;3.90;;;;;;;;;;5053044;28;20393;-82
2023/10/13 03:03:36;;;;;;;4.38;3.25;;;;;;;;;;5062825;28;20381;-82
2023/10/13 03:06:02;;;;;;;4.05;3.47;;;;;;;;;;5064965;28;20404;-82
2023/10/13 03:08:31;;;;;;;4.00;3.60;;;;;;;;;;5065827;28;20437;-82
2023/10/13 03:10:57;;;;;;;4.57;3.38;;;;;;;;;;5067018;28;20908;-82
2023/10/13 03:13:23;;;;;;;5.55;3.40;;;;;;;;;;5067265;28;20416;-82
2023/10/13 03:15:49;;;;;;;5.00;3.53;;;;;;;;;;5068447;28;20389;-82
2023/10/13 03:18:18;;;;;;;4.00;3.60;;;;;;;;;;5051450;28;20747;-82
2023/10/13 03:20:44;;;;;;;4.97;3.70;;;;;;;;;;5068990;28;20381;-82
2023/10/13 03:23:10;;;;;;;4.47;3.50;;;;;;;;;;5068398;28;20381;-82
2023/10/13 03:25:42;;;;;;;4.55;3.85;;;;;;;;;;5067429;28;20393;-83
2023/10/13 03:28:13;;;;;;;4.15;3.75;;;;;;;;;;5067756;28;20476;-82
2023/10/13 03:30:41;;;;;;;5.07;3.60;;;;;;;;;;5068296;28;20381;-82
2023/10/13 03:33:11;;;;;;;4.45;3.60;;;;;;;;;;5068238;28;20405;-82
2023/10/13 03:35:38;;;;;;;4.68;3.42;;;;;;;;;;5068256;28;20393;-82
2023/10/13 03:38:14;;;;;;;3.75;3.40;;;;;;;;;;5068254;28;20449;-82
2023/10/13 03:40:40;;;;;;;4.10;3.67;;;;;;;;;;5068233;28;20392;-82
2023/10/13 03:43:09;;;;;;;5.05;3.67;;;;;;;;;;5067687;28;20381;-83
2023/10/13 03:45:47;;;;;;;5.20;3.95;;;;;;;;;;5070628;28;20378;-82
2023/10/13 03:51:14;;;;;;;3.92;3.53;;;;;;;;;;5069785;28;20369;-83
2023/10/13 03:53:53;;;;;;;4.78;3.85;;;;;;;;;;5071760;28;20424;-83
2023/10/13 03:56:38;;;;;;;3.67;3.38;;;;;;;;;;5072349;28;20392;-82
2023/10/13 03:59:09;;;;;;;3.67;3.38;;;;;;;;;;5060143;28;20377;-83
2023/10/13 04:17:14;;;;;;;4.50;3.60;;;;;;;;;;5073938;28;20377;-82
2023/10/13 04:25:52;;;;;;;4.13;3.58;;;;;;;;;;5073816;28;20802;-83
2023/10/13 04:28:34;;;;;;;5.35;3.70;;;;;;;;;;5060422;28;20388;-82
2023/10/13 04:31:11;;;;;;;4.40;3.90;;;;;;;;;;5073590;28;20390;-82
2023/10/13 04:33:51;;;;;;;4.22;3.75;;;;;;;;;;5073230;28;20448;-82
2023/10/13 04:38:57;;;;;;;6.40;3.75;;;;;;;;;;5073443;28;20400;-82
2023/10/13 04:41:42;;;;;;;5.55;4.13;;;;;;;;;;5072862;28;20397;-82
2023/10/13 04:52:12;;;;;;;5.60;4.07;;;;;;;;;;5072793;28;20870;-83
2023/10/13 05:05:45;;;;;;;4.45;3.67;;;;;;;;;;5069675;28;20393;-82
2023/10/13 05:51:46;;;;;;;5.47;4.18;;;;;;;;;;5074778;28;20789;-82
2023/10/13 06:29:57;;;;;;;4.72;3.83;;;;;;;;;;5070235;28;20412;-81
2023/10/13 06:32:26;;;;;;;5.32;3.85;;;;;;;;;;5071476;28;20405;-82
2023/10/13 06:34:57;;;;;;;4.90;3.83;;;;;;;;;;5073064;28;20385;-82
2023/10/13 06:37:30;;;;;;;5.50;4.15;;;;;;;;;;5073271;28;20404;-82
2023/10/13 06:39:57;;;;;;;7.53;4.20;;;;;;;;;;5072982;28;20574;-82
2023/10/13 06:42:27;;;;;;;5.20;4.35;;;;;;;;;;5072702;28;20386;-82
2023/10/13 06:44:54;;;;;;;5.30;3.97;;;;;;;;;;5071993;28;20395;-82
2023/10/13 06:47:21;;;;;;;6.13;5.07;;;;;;;;;;5072511;28;20831;-82
2023/10/13 06:49:51;;;;;;;7.72;4.70;;;;;;;;;;5071850;28;20401;-82
2023/10/13 06:52:17;;;;;;;5.15;4.65;;;;;;;;;;5070216;28;20388;-82
2023/10/13 06:54:43;;;;;;;5.40;4.40;;;;;;;;;;5071487;28;20393;-84
2023/10/13 06:57:14;;;;;;;4.68;4.18;;;;;;;;;;5058536;28;20381;-82
2023/10/13 06:59:41;;;;;;;5.70;4.03;;;;;;;;;;5071937;28;20416;-82
2023/10/13 07:02:09;;;;;;;4.68;4.25;;;;;;;;;;5072349;28;20384;-82
2023/10/13 07:04:39;;;;;;;5.63;4.53;;;;;;;;;;5071688;28;20404;-82
2023/10/13 07:07:05;;;;;;;6.40;4.63;;;;;;;;;;5054726;28;20394;-82
2023/10/13 07:12:02;;;;;;;5.27;4.43;;;;;;;;;;5072718;28;20381;-83
2023/10/13 07:14:28;;;;;;;7.77;5.07;;;;;;;;;;5073026;28;20385;-83
2023/10/13 07:16:58;;;;;;;7.10;5.03;;;;;;;;;;5070457;28;20400;-83
2023/10/13 07:19:27;;;;;;;6.65;5.13;;;;;;;;;;5074305;28;20369;-83
2023/10/13 07:21:58;;;;;;;8.60;5.60;;;;;;;;;;5075391;28;20428;-83
2023/10/13 07:24:24;;;;;;;6.75;5.47;;;;;;;;;;5076470;28;20386;-83
2023/10/13 07:26:57;;;;;;;6.60;5.28;;;;;;;;;;5076464;28;20397;-83
2023/10/13 07:29:24;;;;;;;6.82;4.80;;;;;;;;;;5076993;28;20373;-83
2023/10/13 07:31:51;;;;;;;7.03;5.10;;;;;;;;;;5059172;28;20393;-83
2023/10/13 07:34:26;;;;;;;7.28;6.00;;;;;;;;;;5076056;28;20409;-83
2023/10/13 07:37:00;;;;;;;8.63;6.40;;;;;;;;;;5076542;28;20460;-83
2023/10/13 07:39:39;;;;;;;9.82;6.18;;;;;;;;;;5075454;28;20388;-82
2023/10/13 07:42:15;;;;;;;12.73;6.20;;;;;;;;;;5075764;28;20773;-83
2023/10/13 07:44:45;;;;;;;9.57;7.07;;;;;;;;;;5076338;28;20386;-83
2023/10/13 07:47:14;;;;;;;7.00;6.30;;;;;;;;;;5076665;28;20385;-83
2023/10/13 07:49:40;;;;;;;10.93;8.13;;;;;;;;;;5075950;28;20407;-83
2023/10/13 07:54:49;;;;;;;12.13;8.77;;;;;;;;;;5072957;28;20404;-83
2023/10/13 07:57:15;;;;;;;9.63;8.48;;;;;;;;;;5075747;28;20413;-84
2023/10/13 07:59:49;;;;;;;9.25;7.80;;;;;;;;;;5075602;28;20396;-84
2023/10/13 08:02:47;;;;;;;12.70;8.40;;;;;;;;;;5061916;28;20369;-83
2023/10/13 08:05:01;;;;;;;8.43;7.38;;;;;;;;;;5076105;28;20408;-82
2023/10/13 08:07:28;;;;;;;12.13;7.65;;;;;;;;;;5075844;28;20405;-83
2023/10/13 08:09:54;;;;;;;8.00;6.82;;;;;;;;;;5075972;28;20389;-83
2023/10/13 08:12:21;;;;;;;8.65;7.10;;;;;;;;;;5075149;28;20389;-83
2023/10/13 08:14:47;;;;;;;10.35;6.88;;;;;;;;;;5075976;28;20397;-83
2023/10/13 08:17:14;;;;;;;12.00;6.90;;;;;;;;;;5075971;28;20385;-83
2023/10/13 08:19:44;;;;;;;11.63;6.63;;;;;;;;;;5074607;28;20428;-84
2023/10/13 08:22:35;;;;;;;10.25;7.25;;;;;;;;;;5070209;28;21410;-83
2023/10/13 08:25:20;;;;;;;10.85;6.78;;;;;;;;;;5057130;28;20373;-84
2023/10/13 08:28:04;;;;;;;9.48;6.65;;;;;;;;;;5067543;28;20377;-83
2023/10/13 08:30:30;;;;;;;10.70;6.45;;;;;;;;;;5067617;28;20390;-83
2023/10/13 08:32:58;;;;;;;9.63;6.47;;;;;;;;;;5068807;28;20432;-83
2023/10/13 08:37:59;;;;;;;6.45;4.07;;;;;;;;;;5067732;28;20393;-84
2023/10/13 08:40:43;;;;;;;5.78;4.00;;;;;;;;;;5069436;28;20459;-83
2023/10/13 08:43:12;;;;;;;4.90;3.65;;;;;;;;;;5069433;28;20386;-83
2023/10/13 09:07:07;;;;;;;5.03;2.80;;;;;;;;;;5067587;28;20377;-83
2023/10/13 09:12:19;;;;;;;5.10;2.42;;;;;;;;;;5065818;28;20386;-83
2023/10/13 09:15:03;;;;;;;5.87;2.30;;;;;;;;;;5064121;28;20479;-84
2023/10/13 09:25:35;;;;;;;7.30;2.70;;;;;;;;;;5065799;28;20453;-84
2023/10/13 09:28:02;;;;;;;7.87;2.97;;;;;;;;;;5067972;28;20843;-84
2023/10/13 09:30:31;;;;;;;5.60;2.40;;;;;;;;;;5067642;28;20389;-84
2023/10/13 09:33:08;;;;;;;5.72;2.40;;;;;;;;;;5067063;28;21042;-84
2023/10/13 09:35:36;;;;;;;4.05;2.30;;;;;;;;;;5048694;28;20401;-84
2023/10/13 09:38:03;;;;;;;6.27;2.40;;;;;;;;;;5066644;28;20381;-84
2023/10/13 09:43:04;;;;;;;5.65;2.33;;;;;;;;;;5066770;28;20746;-84
2023/10/13 09:45:38;;;;;;;6.10;2.75;;;;;;;;;;5066313;28;20472;-84
2023/10/13 09:48:06;;;;;;;4.13;2.22;;;;;;;;;;5066186;28;20445;-82
2023/10/13 09:50:37;;;;;;;4.07;2.70;;;;;;;;;;5044868;28;20390;-83
2023/10/13 09:53:08;;;;;;;4.60;2.70;;;;;;;;;;5062533;28;20532;-83
2023/10/13 09:55:39;;;;;;;4.35;2.22;;;;;;;;;;5062393;28;20499;-83
2023/10/13 09:58:11;;;;;;;5.55;2.53;;;;;;;;;;5061712;28;20401;-83
2023/10/13 10:06:14;;;;;;;5.43;2.60;;;;;;;;;;5062531;28;20845;-83
2023/10/13 10:08:48;;;;;;;6.45;2.70;;;;;;;;;;5063153;28;20392;-83
2023/10/13 10:11:23;;;;;;;4.78;2.60;;;;;;;;;;5049056;28;20393;-83
2023/10/13 10:13:57;;;;;;;4.60;2.50;;;;;;;;;;5062459;28;20411;-83
2023/10/13 10:16:32;;;;;;;4.10;2.10;;;;;;;;;;5062918;28;20381;-83
2023/10/13 10:19:07;;;;;;;3.60;2.35;;;;;;;;;;5062474;28;20381;-83
2023/10/13 10:21:35;;;;;;;5.70;2.20;;;;;;;;;;5049818;28;20382;-83
2023/10/13 10:24:13;;;;;;;5.78;2.28;;;;;;;;;;5061944;28;20377;-83
2023/10/13 10:26:39;;;;;;;6.35;2.35;;;;;;;;;;5059276;28;20381;-82
2023/10/13 10:29:14;;;;;;;3.60;2.13;;;;;;;;;;5060123;28;20715;-83
2023/10/13 10:31:44;;;;;;;5.38;2.35;;;;;;;;;;5060435;28;20399;-83
2023/10/13 10:34:13;;;;;;;4.07;1.95;;;;;;;;;;5060181;28;20886;-83
2023/10/13 10:36:42;;;;;;;4.53;2.47;;;;;;;;;;5060323;28;20718;-83
2023/10/13 10:39:12;;;;;;;4.38;2.15;;;;;;;;;;5027448;28;20389;-83
2023/10/13 10:44:15;;;;;;;4.35;2.10;;;;;;;;;;5060471;28;20386;-84
2023/10/13 10:46:51;;;;;;;4.03;2.20;;;;;;;;;;5059917;28;20400;-81
2023/10/13 10:49:27;;;;;;;3.42;2.00;;;;;;;;;;5059698;28;20394;-82
2023/10/13 10:51:57;;;;;;;3.83;2.10;;;;;;;;;;5059838;28;20373;-82
2023/10/13 10:54:30;;;;;;;4.97;2.13;;;;;;;;;;5060217;28;20421;-82
2023/10/13 10:56:56;;;;;;;3.55;2.35;;;;;;;;;;5060942;28;20385;-82
2023/10/13 10:59:24;;;;;;;3.97;2.40;;;;;;;;;;5061019;28;20392;-82
2023/10/13 11:01:51;;;;;;;6.25;2.60;;;;;;;;;;5060412;28;20377;-82
2023/10/13 11:06:55;;;;;;;4.22;2.00;;;;;;;;;;5060124;28;20390;-82
2023/10/13 11:09:36;;;;;;;4.15;2.42;;;;;;;;;;5061031;28;20391;-82
2023/10/13 11:12:43;;;;;;;6.93;2.17;;;;;;;;;;5061224;28;20443;-81
2023/10/13 11:15:01;;;;;;;3.37;2.20;;;;;;;;;;5046558;28;20393;-82
2023/10/13 11:17:41;;;;;;;4.17;1.93;;;;;;;;;;5061076;28;20373;-82
2023/10/13 11:20:33;;;;;;;3.55;2.05;;;;;;;;;;5042984;28;20397;-82
2023/10/13 11:22:58;;;;;;;3.75;1.98;;;;;;;;;;5059403;28;20377;-82
2023/10/13 11:25:34;;;;;;;3.95;1.90;;;;;;;;;;5060669;28;20377;-82
2023/10/13 11:28:29;;;;;;;5.75;2.47;;;;;;;;;;5042396;28;20407;-82
2023/10/13 11:30:58;;;;;;;3.47;2.00;;;;;;;;;;5060076;28;20385;-82
2023/10/13 11:33:29;;;;;;;5.63;2.20;;;;;;;;;;5060052;28;20401;-83
2023/10/13 11:36:01;;;;;;;6.47;2.22;;;;;;;;;;5059784;28;20396;-82
2023/10/13 11:38:43;;;;;;;5.73;2.30;;;;;;;;;;5047009;28;20384;-82
2023/10/13 11:41:12;;;;;;;4.22;2.25;;;;;;;;;;5060071;28;20412;-82
2023/10/13 11:46:15;;;;;;;2.78;2.30;;;;;;;;;;5059949;28;20531;-83
2023/10/13 11:48:44;;;;;;;4.85;2.30;;;;;;;;;;5047141;28;20377;-82
2023/10/13 11:51:17;;;;;;;4.10;2.40;;;;;;;;;;5042452;28;20390;-83
2023/10/13 11:53:45;;;;;;;6.75;2.45;;;;;;;;;;5041782;28;20416;-82
2023/10/13 11:56:11;;;;;;;5.07;2.33;;;;;;;;;;5060348;28;20407;-83
2023/10/13 11:58:37;;;;;;;3.95;2.42;;;;;;;;;;5059960;28;20393;-83
2023/10/13 12:06:46;;;;;;;6.70;2.40;;;;;;;;;;5061661;28;20396;-83
2023/10/13 12:11:42;;;;;;;3.33;2.25;;;;;;;;;;5063425;28;20394;-82
2023/10/13 12:14:21;;;;;;;5.38;2.30;;;;;;;;;;5062588;28;20416;-82
2023/10/13 12:16:51;;;;;;;5.72;2.90;;;;;;;;;;5063104;28;20392;-81
2023/10/13 12:19:17;;;;;;;4.30;2.20;;;;;;;;;;5062830;28;20378;-84
2023/10/13 12:21:48;;;;;;;5.10;2.38;;;;;;;;;;5064024;28;20435;-82
2023/10/13 12:26:59;;;;;;;7.18;2.80;;;;;;;;;;5063455;28;20815;-82
2023/10/13 12:29:28;;;;;;;4.43;2.05;;;;;;;;;;5063250;28;20417;-81
2023/10/13 12:32:12;;;;;;;4.38;2.35;;;;;;;;;;5045455;28;20385;-82
2023/10/13 12:35:00;;;;;;;4.55;2.75;;;;;;;;;;5062580;28;20400;-84
2023/10/13 12:53:55;;;;;;;4.80;2.28;;;;;;;;;;5063328;28;20492;-81
2023/10/13 12:56:28;;;;;;;4.90;2.30;;;;;;;;;;5061615;28;20397;-81
2023/10/13 12:58:54;;;;;;;4.03;2.70;;;;;;;;;;5048653;28;20377;-84
2023/10/13 13:01:32;;;;;;;5.75;2.13;;;;;;;;;;5061979;28;20467;-83
2023/10/13 13:04:01;;;;;;;3.78;2.30;;;;;;;;;;5062896;28;20374;-84
2023/10/13 13:06:32;;;;;;;3.85;2.30;;;;;;;;;;5062096;28;20386;-83
2023/10/13 13:08:58;;;;;;;6.90;2.40;;;;;;;;;;5061458;28;20377;-83
2023/10/13 13:11:25;;;;;;;6.60;2.27;;;;;;;;;;5062312;28;20432;-83
2023/10/13 13:13:51;;;;;;;4.20;2.13;;;;;;;;;;5061777;28;20428;-83
2023/10/13 13:16:18;;;;;;;4.57;2.10;;;;;;;;;;5061544;28;20431;-83
2023/10/13 13:18:45;;;;;;;3.00;1.77;;;;;;;;;;5063082;28;20377;-83
2023/10/13 13:21:22;;;;;;;4.65;2.55;;;;;;;;;;5061702;28;20420;-83
2023/10/13 13:23:48;;;;;;;5.13;2.05;;;;;;;;;;5061637;28;20392;-84
2023/10/13 13:26:18;;;;;;;4.80;2.05;;;;;;;;;;5061100;28;20443;-83
2023/10/13 13:28:45;;;;;;;6.65;2.47;;;;;;;;;;5061286;28;20830;-84
2023/10/13 13:31:15;;;;;;;4.90;2.20;;;;;;;;;;5043064;28;20389;-83
2023/10/13 13:33:43;;;;;;;4.82;2.00;;;;;;;;;;5061966;28;20453;-83
2023/10/13 13:36:14;;;;;;;3.83;2.28;;;;;;;;;;5061727;28;20381;-81
2023/10/13 13:38:40;;;;;;;8.55;2.30;;;;;;;;;;5061117;28;20420;-84
2023/10/13 13:41:16;;;;;;;3.97;2.30;;;;;;;;;;5061899;28;20390;-83
2023/10/13 13:43:54;;;;;;;4.57;2.53;;;;;;;;;;5060572;28;20384;-82
2023/10/13 13:46:27;;;;;;;7.07;2.38;;;;;;;;;;5060373;28;20854;-81
2023/10/13 13:48:58;;;;;;;5.45;2.30;;;;;;;;;;5060617;28;20394;-82
2023/10/13 13:51:32;;;;;;;3.42;2.00;;;;;;;;;;5061125;28;20385;-81
2023/10/13 13:53:58;;;;;;;4.73;2.10;;;;;;;;;;5059812;28;20920;-81
2023/10/13 13:56:28;;;;;;;4.63;2.30;;;;;;;;;;5060549;28;20880;-82
2023/10/13 13:58:55;;;;;;;5.55;2.50;;;;;;;;;;5060404;28;20381;-82
2023/10/13 14:01:22;;;;;;;4.88;2.05;;;;;;;;;;5059876;28;20431;-82
2023/10/13 14:03:52;;;;;;;3.67;2.25;;;;;;;;;;5060556;28;20413;-82
2023/10/13 14:06:28;;;;;;;4.30;2.00;;;;;;;;;;5060219;28;20424;-82
2023/10/13 14:08:59;;;;;;;7.55;2.20;;;;;;;;;;5059116;28;20381;-82
2023/10/13 14:14:04;;;;;;;3.90;2.20;;;;;;;;;;5059771;28;20890;-82
2023/10/13 14:16:33;;;;;;;7.28;2.40;;;;;;;;;;5060028;28;20385;-82
2023/10/13 14:19:07;;;;;;;5.50;1.98;;;;;;;;;;5041718;28;20450;-82
2023/10/13 14:21:34;;;;;;;5.90;2.20;;;;;;;;;;5042511;28;20392;-82
2023/10/13 14:24:01;;;;;;;4.90;2.10;;;;;;;;;;5063315;28;20381;-84
2023/10/13 14:26:28;;;;;;;5.43;2.00;;;;;;;;;;5058309;28;20401;-83
2023/10/13 14:29:09;;;;;;;9.90;2.30;;;;;;;;;;5058210;28;20428;-83
2023/10/13 14:31:39;;;;;;;5.55;2.10;;;;;;;;;;5060168;28;20891;-81
2023/10/13 14:34:06;;;;;;;5.00;2.38;;;;;;;;;;5055896;28;20440;-82
2023/10/13 14:36:35;;;;;;;5.13;2.30;;;;;;;;;;5060528;28;20389;-81
2023/10/13 14:39:02;;;;;;;3.65;2.33;;;;;;;;;;5061462;28;20381;-81
2023/10/13 14:41:29;;;;;;;6.22;2.28;;;;;;;;;;5061737;28;20380;-81
2023/10/13 14:44:04;;;;;;;6.65;2.38;;;;;;;;;;5063457;28;20377;-82
2023/10/13 14:46:31;;;;;;;4.95;2.17;;;;;;;;;;5061866;28;20409;-81
2023/10/13 14:48:57;;;;;;;4.97;2.05;;;;;;;;;;5061079;28;20370;-81
2023/10/13 14:51:25;;;;;;;3.53;2.20;;;;;;;;;;5060873;28;20424;-82
2023/10/13 14:53:55;;;;;;;3.87;1.90;;;;;;;;;;5046712;28;20425;-83
2023/10/13 14:56:25;;;;;;;4.15;2.00;;;;;;;;;;5065827;28;20388;-82
2023/10/13 14:58:51;;;;;;;6.63;2.25;;;;;;;;;;5063196;28;20381;-82
2023/10/13 15:01:18;;;;;;;5.25;2.15;;;;;;;;;;5064700;28;20732;-84
2023/10/13 15:03:45;;;;;;;6.10;2.30;;;;;;;;;;5042407;28;20425;-82
2023/10/13 15:06:17;;;;;;;4.97;1.90;;;;;;;;;;5062270;28;20522;-83
2023/10/13 15:08:45;;;;;;;3.85;2.00;;;;;;;;;;5063609;28;20389;-83
2023/10/13 15:11:12;;;;;;;6.30;2.05;;;;;;;;;;5053533;28;20423;-83
2023/10/13 15:13:39;;;;;;;3.25;2.00;;;;;;;;;;5057569;28;20475;-82
2023/10/13 15:16:14;;;;;;;3.28;2.00;;;;;;;;;;5064345;28;20385;-82
2023/10/13 15:18:40;;;;;;;3.73;2.10;;;;;;;;;;5064760;28;20385;-83
2023/10/13 15:21:08;;;;;;;8.68;2.10;;;;;;;;;;5053341;28;20447;-83
2023/10/13 15:23:42;;;;;;;4.20;1.98;;;;;;;;;;5047734;28;20398;-82
2023/10/13 15:26:09;;;;;;;5.18;1.98;;;;;;;;;;5060043;28;20432;-83
2023/10/13 15:28:37;;;;;;;2.72;2.20;;;;;;;;;;5062320;28;20377;-83
2023/10/13 15:31:22;;;;;;;4.78;2.10;;;;;;;;;;5061693;28;20405;-83
2023/10/13 15:33:52;;;;;;;2.78;1.95;;;;;;;;;;5058531;28;20413;-83
2023/10/13 15:36:21;;;;;;;4.07;1.90;;;;;;;;;;5060043;28;20503;-83
2023/10/13 15:38:47;;;;;;;3.53;2.00;;;;;;;;;;5062365;28;20507;-83
2023/10/13 15:41:13;;;;;;;2.88;2.10;;;;;;;;;;5065047;28;20415;-83
2023/10/13 15:43:49;;;;;;;3.75;2.00;;;;;;;;;;5061951;28;20432;-83
2023/10/13 15:46:22;;;;;;;3.80;1.80;;;;;;;;;;5059682;28;20385;-82
2023/10/13 15:48:49;;;;;;;3.40;1.93;;;;;;;;;;5056130;28;21091;-83
2023/10/13 15:51:16;;;;;;;3.83;1.98;;;;;;;;;;5066335;28;20381;-83
2023/10/13 15:53:49;;;;;;;4.50;1.88;;;;;;;;;;5065667;28;20420;-82
2023/10/13 15:56:16;;;;;;;4.10;1.65;;;;;;;;;;5065561;28;20393;-82
2023/10/13 15:58:45;;;;;;;2.17;1.67;;;;;;;;;;5054125;28;20385;-82
2023/10/13 16:01:15;;;;;;;4.28;2.10;;;;;;;;;;5057218;28;20425;-82
2023/10/13 16:03:49;;;;;;;3.38;2.00;;;;;;;;;;5058370;28;20415;-82
2023/10/13 16:06:15;;;;;;;3.60;1.90;;;;;;;;;;5048776;28;20537;-83
2023/10/13 16:08:44;;;;;;;6.23;2.10;;;;;;;;;;5062024;28;20409;-83
2023/10/13 16:11:14;;;;;;;5.43;1.87;;;;;;;;;;5063367;28;20404;-83
2023/10/13 16:13:44;;;;;;;5.70;2.05;;;;;;;;;;5061233;28;20432;-83
2023/10/13 16:16:22;;;;;;;2.88;1.67;;;;;;;;;;5063031;28;20377;-82
2023/10/13 16:18:48;;;;;;;2.38;1.42;;;;;;;;;;5059754;28;20393;-83
2023/10/13 16:21:17;;;;;;;3.78;2.00;;;;;;;;;;5046019;28;21008;-83
2023/10/13 16:23:46;;;;;;;3.13;1.60;;;;;;;;;;5064590;28;20392;-82
2023/10/13 16:26:12;;;;;;;5.68;1.77;;;;;;;;;;5065598;28;20419;-83
2023/10/13 16:28:38;;;;;;;3.92;1.80;;;;;;;;;;5059783;28;20397;-83
2023/10/13 16:31:05;;;;;;;3.10;1.58;;;;;;;;;;5054473;28;20380;-83
2023/10/13 16:33:35;;;;;;;3.55;1.88;;;;;;;;;;5031680;28;20414;-82
2023/10/13 16:36:05;;;;;;;4.30;1.92;;;;;;;;;;5053205;28;20383;-82
2023/10/13 16:38:31;;;;;;;3.17;2.08;;;;;;;;;;5047501;28;20386;-83
2023/10/13 16:40:57;;;;;;;5.97;2.10;;;;;;;;;;5059211;28;20439;-83
2023/10/13 16:43:23;;;;;;;5.03;2.55;;;;;;;;;;5057174;28;20386;-83
2023/10/13 16:45:49;;;;;;;4.27;2.70;;;;;;;;;;5065591;28;21107;-83
2023/10/13 16:48:18;;;;;;;4.87;2.33;;;;;;;;;;5066291;28;20474;-83
2023/10/13 16:50:44;;;;;;;5.55;2.67;;;;;;;;;;5029266;28;20779;-82
2023/10/13 16:53:14;;;;;;;4.47;2.50;;;;;;;;;;5048902;28;20414;-82
2023/10/13 16:55:43;;;;;;;3.95;2.10;;;;;;;;;;5058667;28;20533;-82
2023/10/13 16:58:12;;;;;;;3.15;2.13;;;;;;;;;;5059746;28;20378;-83
2023/10/13 17:00:42;;;;;;;3.58;2.47;;;;;;;;;;5062581;28;20387;-83
2023/10/13 17:03:09;;;;;;;5.47;2.53;;;;;;;;;;5056500;28;20736;-83
2023/10/13 17:05:45;;;;;;;3.05;1.90;;;;;;;;;;5047308;28;20377;-83
2023/10/13 17:08:13;;;;;;;4.32;1.98;;;;;;;;;;5065714;28;20377;-83
2023/10/13 17:10:39;;;;;;;5.07;2.20;;;;;;;;;;5064968;28;20445;-82
2023/10/13 17:13:05;;;;;;;3.60;2.20;;;;;;;;;;5052515;28;20436;-82
2023/10/13 17:15:38;;;;;;;5.80;2.67;;;;;;;;;;5056539;28;20377;-81
2023/10/13 17:18:05;;;;;;;5.68;2.58;;;;;;;;;;5057047;28;20404;-81
2023/10/13 17:20:35;;;;;;;3.50;2.40;;;;;;;;;;5057967;28;20405;-81
2023/10/13 17:23:01;;;;;;;4.60;2.33;;;;;;;;;;5056833;28;20394;-81
2023/10/13 17:25:27;;;;;;;4.75;2.38;;;;;;;;;;5057144;28;20996;-81
2023/10/13 17:27:53;;;;;;;6.03;3.33;;;;;;;;;;5057942;28;20893;-81
2023/10/13 17:30:19;;;;;;;3.95;3.10;;;;;;;;;;5057345;28;20401;-80
2023/10/13 17:32:45;;;;;;;7.80;3.65;;;;;;;;;;5059299;28;20876;-79
2023/10/13 17:35:11;;;;;;;4.78;3.38;;;;;;;;;;5057985;28;20417;-79
2023/10/13 17:37:42;;;;;;;4.50;3.28;;;;;;;;;;5058031;28;20388;-79
2023/10/13 17:40:09;;;;;;;6.43;3.58;;;;;;;;;;5057563;28;20401;-81
2023/10/13 17:42:35;;;;;;;5.30;3.80;;;;;;;;;;5057796;28;20380;-79
2023/10/13 17:45:05;;;;;;;5.63;3.08;;;;;;;;;;5058153;28;20381;-80
2023/10/13 17:47:31;;;;;;;6.03;3.05;;;;;;;;;;5058509;28;20855;-81
2023/10/13 17:50:00;;;;;;;5.75;2.65;;;;;;;;;;5058024;28;20397;-79
2023/10/13 17:52:26;;;;;;;5.72;2.70;;;;;;;;;;5042777;28;20887;-80
2023/10/13 17:54:52;;;;;;;5.63;3.10;;;;;;;;;;5060418;28;20394;-80
2023/10/13 17:57:18;;;;;;;5.72;3.28;;;;;;;;;;5059694;28;20386;-80
2023/10/13 17:59:44;;;;;;;4.32;2.83;;;;;;;;;;5056819;28;20412;-80
2023/10/13 18:02:11;;;;;;;5.13;4.30;;;;;;;;;;5057861;28;20389;-80
2023/10/13 18:04:38;;;;;;;7.50;4.32;;;;;;;;;;5057597;28;20388;-80
2023/10/13 18:07:05;;;;;;;5.77;4.17;;;;;;;;;;5045068;28;20466;-80
2023/10/13 18:09:31;;;;;;;6.47;4.00;;;;;;;;;;5057552;28;20450;-79
2023/10/13 18:11:57;;;;;;;5.85;3.83;;;;;;;;;;5058881;28;20378;-81
2023/10/13 18:14:24;;;;;;;4.47;3.33;;;;;;;;;;5060144;28;20436;-81
2023/10/13 18:16:50;;;;;;;3.95;2.90;;;;;;;;;;5060313;28;20799;-81
2023/10/13 18:19:20;;;;;;;5.43;3.00;;;;;;;;;;5059947;28;20924;-81
2023/10/13 18:21:46;;;;;;;3.10;2.60;;;;;;;;;;5060395;28;20774;-80
2023/10/13 18:24:12;;;;;;;3.90;2.50;;;;;;;;;;5057999;28;20385;-80
2023/10/13 18:26:38;;;;;;;4.45;2.38;;;;;;;;;;5060295;28;20390;-80
2023/10/13 18:29:04;;;;;;;5.18;2.58;;;;;;;;;;5060028;28;20866;-80
2023/10/13 18:31:31;;;;;;;4.07;2.70;;;;;;;;;;5058681;28;20407;-80
2023/10/13 18:33:59;;;;;;;6.43;2.77;;;;;;;;;;5059473;28;20486;-80
2023/10/13 18:36:29;;;;;;;3.03;2.57;;;;;;;;;;5056056;28;20416;-80